Time;durP1;ratioP1;P1;durP2;ratioP2;P2;SDS_P1;SDS_P2;PMS_P1;PMS_P2;Temp;Humidity;BMP_temperature;BMP_pressure;BME280_temperature;BME280_humidity;BME280_pressure;Samples;Min_cycle;Max_cycle;Signal;HPM_P1;HPM_P2
2023/10/27 00:01:08;;;;;;;4.47;1.40;;;11.00;99.90;;;;;;4974027;28;20387;-76
2023/10/27 00:03:33;;;;;;;5.35;0.77;;;11.00;99.90;;;;;;4972548;28;20054;-76
2023/10/27 00:05:59;;;;;;;5.00;1.23;;;10.90;99.90;;;;;;4974022;28;20026;-74
2023/10/27 00:08:24;;;;;;;3.85;1.27;;;11.00;99.90;;;;;;4973972;28;20054;-75
2023/10/27 00:10:50;;;;;;;5.22;1.27;;;10.90;99.90;;;;;;4973787;28;20101;-76
2023/10/27 00:13:16;;;;;;;2.60;1.17;;;11.00;99.90;;;;;;4973815;28;20470;-75
2023/10/27 00:15:41;;;;;;;2.85;1.10;;;10.90;99.90;;;;;;4973834;28;20089;-77
2023/10/27 00:18:07;;;;;;;6.55;1.30;;;10.90;99.90;;;;;;4973924;28;20030;-77
2023/10/27 00:20:32;;;;;;;3.38;1.08;;;10.90;99.90;;;;;;4974202;28;20426;-77
2023/10/27 00:22:58;;;;;;;6.22;1.15;;;10.90;99.90;;;;;;4976775;28;20031;-77
2023/10/27 00:25:24;;;;;;;4.68;0.90;;;10.90;99.90;;;;;;4975326;28;20398;-75
2023/10/27 00:27:50;;;;;;;4.18;1.00;;;10.80;99.90;;;;;;4973956;28;20027;-76
2023/10/27 00:30:17;;;;;;;5.85;1.00;;;10.90;99.90;;;;;;4973613;28;20033;-75
2023/10/27 00:32:43;;;;;;;4.30;1.40;;;10.80;99.90;;;;;;4973131;28;20027;-76
2023/10/27 00:35:09;;;;;;;2.92;1.10;;;10.80;99.90;;;;;;4974929;28;20109;-76
2023/10/27 00:37:36;;;;;;;3.13;1.10;;;10.80;99.90;;;;;;4959992;28;20495;-76
2023/10/27 00:40:02;;;;;;;2.33;1.00;;;10.80;99.90;;;;;;4977012;28;20787;-76
2023/10/27 00:42:28;;;;;;;2.53;0.80;;;10.80;99.90;;;;;;4976975;28;20081;-76
2023/10/27 00:44:54;;;;;;;5.28;1.00;;;10.80;99.90;;;;;;4977203;28;20379;-75
2023/10/27 00:47:20;;;;;;;6.28;1.45;;;10.80;99.90;;;;;;4977032;28;20035;-76
2023/10/27 00:49:46;;;;;;;3.60;1.27;;;10.80;99.90;;;;;;4976847;28;20042;-77
2023/10/27 00:52:17;;;;;;;4.78;1.42;;;10.80;99.90;;;;;;4976897;28;20029;-76
2023/10/27 00:54:47;;;;;;;7.13;1.10;;;10.80;99.90;;;;;;4959560;28;20071;-76
2023/10/27 00:57:14;;;;;;;3.50;1.10;;;10.80;99.90;;;;;;4977058;28;20073;-74
2023/10/27 00:59:41;;;;;;;6.45;1.08;;;10.80;99.90;;;;;;4976949;28;20031;-75
2023/10/27 01:02:06;;;;;;;2.42;0.88;;;10.70;99.90;;;;;;4976842;28;20035;-75
2023/10/27 01:04:32;;;;;;;4.07;1.00;;;10.70;99.90;;;;;;4976988;28;20379;-75
2023/10/27 01:06:58;;;;;;;2.30;0.95;;;10.80;99.90;;;;;;4975865;28;20038;-75
2023/10/27 01:09:24;;;;;;;5.57;0.98;;;10.80;99.90;;;;;;4977095;28;20046;-75
2023/10/27 01:11:50;;;;;;;2.38;1.00;;;10.70;99.90;;;;;;4978628;28;20031;-75
2023/10/27 01:14:17;;;;;;;2.78;0.77;;;10.70;99.90;;;;;;4976856;28;20453;-75
2023/10/27 01:16:43;;;;;;;2.22;0.70;;;10.70;99.90;;;;;;4976007;28;20022;-75
2023/10/27 01:19:08;;;;;;;5.43;1.23;;;10.70;99.90;;;;;;4975931;28;20023;-75
2023/10/27 01:21:34;;;;;;;2.95;1.00;;;10.60;99.90;;;;;;4977019;28;20019;-75
2023/10/27 01:24:00;;;;;;;2.63;0.70;;;10.60;99.90;;;;;;4976425;28;20390;-75
2023/10/27 01:26:25;;;;;;;3.08;0.70;;;10.60;99.90;;;;;;4976263;28;20031;-75
2023/10/27 01:28:51;;;;;;;3.92;0.95;;;10.70;99.90;;;;;;4975913;28;20077;-76
2023/10/27 01:31:17;;;;;;;3.13;0.90;;;10.70;99.90;;;;;;4975835;28;20375;-74
2023/10/27 01:33:43;;;;;;;1.95;0.98;;;10.60;99.90;;;;;;4976739;28;20022;-75
2023/10/27 01:36:09;;;;;;;7.20;0.82;;;10.60;99.90;;;;;;4976089;28;20483;-75
2023/10/27 01:38:34;;;;;;;1.90;0.93;;;10.60;99.90;;;;;;4975944;28;20055;-74
2023/10/27 01:41:00;;;;;;;2.80;0.73;;;10.60;99.90;;;;;;4976102;28;20401;-74
2023/10/27 01:43:26;;;;;;;3.45;0.65;;;10.60;99.90;;;;;;4976119;28;20027;-75
2023/10/27 01:45:51;;;;;;;4.43;1.20;;;10.60;99.90;;;;;;4975273;28;20033;-75
2023/10/27 01:48:17;;;;;;;4.18;1.02;;;10.60;99.90;;;;;;4974695;28;20026;-74
2023/10/27 01:50:43;;;;;;;4.85;0.90;;;10.60;99.90;;;;;;4975637;28;20031;-74
2023/10/27 01:53:08;;;;;;;2.70;0.60;;;10.60;99.90;;;;;;4975889;28;20061;-75
2023/10/27 01:55:34;;;;;;;2.38;0.68;;;10.50;99.90;;;;;;4975548;28;20027;-74
2023/10/27 01:58:02;;;;;;;4.70;1.15;;;10.50;99.90;;;;;;4975898;28;20027;-75
2023/10/27 02:00:27;;;;;;;3.28;0.80;;;10.50;99.90;;;;;;4974098;28;20038;-74
2023/10/27 02:02:53;;;;;;;4.18;1.00;;;10.50;99.90;;;;;;4973227;28;20073;-73
2023/10/27 02:05:19;;;;;;;2.97;0.73;;;10.50;99.90;;;;;;4974234;28;20027;-74
2023/10/27 02:07:44;;;;;;;4.05;1.00;;;10.50;99.90;;;;;;4974005;28;20034;-74
2023/10/27 02:10:10;;;;;;;5.38;1.25;;;10.50;99.90;;;;;;4973937;28;20041;-74
2023/10/27 02:12:36;;;;;;;3.08;0.60;;;10.50;99.90;;;;;;4974089;28;20027;-74
2023/10/27 02:15:01;;;;;;;2.10;1.00;;;10.50;99.90;;;;;;4973979;28;20026;-75
2023/10/27 02:17:27;;;;;;;3.35;0.90;;;10.50;99.90;;;;;;4973915;28;20027;-74
2023/10/27 02:19:54;;;;;;;4.57;1.13;;;10.50;99.90;;;;;;4973764;28;20031;-76
2023/10/27 02:22:20;;;;;;;2.13;0.70;;;10.50;99.90;;;;;;4975024;28;20037;-75
2023/10/27 02:24:45;;;;;;;3.13;0.93;;;10.50;99.90;;;;;;4976541;28;20031;-75
2023/10/27 02:27:11;;;;;;;3.05;0.80;;;10.50;99.90;;;;;;4976584;28;20502;-75
2023/10/27 02:29:37;;;;;;;1.98;0.85;;;10.50;99.90;;;;;;4976174;28;20109;-76
2023/10/27 02:32:03;;;;;;;3.10;0.68;;;10.50;99.90;;;;;;4973734;28;20078;-76
2023/10/27 02:34:28;;;;;;;4.07;0.65;;;10.40;99.90;;;;;;4973645;28;20050;-75
2023/10/27 02:36:54;;;;;;;1.20;0.60;;;10.50;99.90;;;;;;4973646;28;20062;-76
2023/10/27 02:39:19;;;;;;;2.95;0.75;;;10.50;99.90;;;;;;4973689;28;20498;-76
2023/10/27 02:41:45;;;;;;;1.70;0.60;;;10.50;99.90;;;;;;4956075;28;20568;-76
2023/10/27 02:44:12;;;;;;;2.33;0.65;;;10.50;99.90;;;;;;4973521;28;20030;-74
2023/10/27 02:46:38;;;;;;;2.55;0.52;;;10.40;99.90;;;;;;4973559;28;20508;-74
2023/10/27 02:49:04;;;;;;;3.10;0.88;;;10.40;99.90;;;;;;4973305;28;20022;-75
2023/10/27 02:51:30;;;;;;;2.05;0.70;;;10.40;99.90;;;;;;4973273;28;20030;-74
2023/10/27 02:53:56;;;;;;;5.65;0.60;;;10.40;99.90;;;;;;4973558;28;20047;-75
2023/10/27 02:56:22;;;;;;;1.13;0.70;;;10.40;99.90;;;;;;4973270;28;20533;-76
2023/10/27 02:58:47;;;;;;;1.90;0.60;;;10.40;99.90;;;;;;4973093;28;20055;-74
2023/10/27 03:01:14;;;;;;;1.33;0.65;;;10.40;99.90;;;;;;4973101;28;20097;-74
2023/10/27 03:03:41;;;;;;;1.30;0.50;;;10.40;99.90;;;;;;4955910;28;20507;-74
2023/10/27 03:06:07;;;;;;;3.95;0.70;;;10.40;99.90;;;;;;4972954;28;20058;-75
2023/10/27 03:08:34;;;;;;;3.47;0.77;;;10.40;99.90;;;;;;4973154;28;20031;-77
2023/10/27 03:10:59;;;;;;;2.20;0.88;;;10.40;99.90;;;;;;4972982;28;20027;-77
2023/10/27 03:13:27;;;;;;;1.88;0.70;;;10.40;99.90;;;;;;4973170;28;20394;-77
2023/10/27 03:15:53;;;;;;;3.30;0.50;;;10.30;99.90;;;;;;4972991;28;20027;-77
2023/10/27 03:18:19;;;;;;;3.38;0.50;;;10.40;99.90;;;;;;4973109;28;20118;-75
2023/10/27 03:20:44;;;;;;;2.67;0.60;;;10.40;99.90;;;;;;4972947;28;20145;-76
2023/10/27 03:23:10;;;;;;;2.05;0.60;;;10.40;99.90;;;;;;4972909;28;20027;-75
2023/10/27 03:25:35;;;;;;;1.40;0.75;;;10.30;99.90;;;;;;4973078;28;20023;-77
2023/10/27 03:28:01;;;;;;;1.92;0.63;;;10.30;99.90;;;;;;4973125;28;20031;-77
2023/10/27 03:30:28;;;;;;;1.27;0.70;;;10.30;99.90;;;;;;4972787;28;20552;-76
2023/10/27 03:32:54;;;;;;;1.45;0.68;;;10.30;99.90;;;;;;4973495;28;20011;-77
2023/10/27 03:35:19;;;;;;;3.03;1.08;;;10.30;99.90;;;;;;4973384;28;20023;-77
2023/10/27 03:37:45;;;;;;;2.95;0.63;;;10.30;99.90;;;;;;4973165;28;20386;-77
2023/10/27 03:40:12;;;;;;;3.47;0.80;;;10.30;99.90;;;;;;4955228;28;20141;-76
2023/10/27 03:42:38;;;;;;;3.25;0.57;;;10.30;99.90;;;;;;4972875;28;20023;-74
2023/10/27 03:45:04;;;;;;;2.65;0.60;;;10.30;99.90;;;;;;4977592;28;20037;-76
2023/10/27 03:47:29;;;;;;;3.75;0.80;;;10.30;99.90;;;;;;4993019;28;20037;-77
2023/10/27 03:49:55;;;;;;;2.45;0.63;;;10.30;99.90;;;;;;4991867;28;20105;-75
2023/10/27 03:52:21;;;;;;;3.05;0.73;;;10.30;99.90;;;;;;4976566;28;20435;-77
2023/10/27 03:54:46;;;;;;;3.67;0.60;;;10.30;99.90;;;;;;4972805;28;20102;-77
2023/10/27 03:57:12;;;;;;;1.25;0.60;;;10.30;99.90;;;;;;4972984;28;20023;-77
2023/10/27 03:59:38;;;;;;;1.92;0.85;;;10.20;99.90;;;;;;4972581;28;20113;-77
2023/10/27 04:02:05;;;;;;;1.27;0.50;;;10.20;99.90;;;;;;4972471;28;20050;-77
2023/10/27 04:04:31;;;;;;;2.80;0.95;;;10.20;99.90;;;;;;4972766;28;20034;-77
2023/10/27 04:06:57;;;;;;;2.47;0.70;;;10.20;99.90;;;;;;4973612;28;20031;-76
2023/10/27 04:09:23;;;;;;;3.20;0.60;;;10.20;99.90;;;;;;4973764;28;20023;-75
2023/10/27 04:11:49;;;;;;;4.38;0.73;;;10.20;99.90;;;;;;4978220;28;20474;-76
2023/10/27 04:14:14;;;;;;;1.95;0.82;;;10.20;99.90;;;;;;4976844;28;20450;-76
2023/10/27 04:16:40;;;;;;;2.10;0.63;;;10.20;99.90;;;;;;4976760;28;20054;-76
2023/10/27 04:19:06;;;;;;;2.88;0.50;;;10.20;99.90;;;;;;4976625;28;20019;-77
2023/10/27 04:21:31;;;;;;;1.73;0.68;;;10.20;99.90;;;;;;4959146;28;20060;-76
2023/10/27 04:23:59;;;;;;;1.88;0.70;;;10.20;99.90;;;;;;4959684;28;20019;-77
2023/10/27 04:26:24;;;;;;;2.38;0.60;;;10.20;99.90;;;;;;4976781;28;20502;-77
2023/10/27 04:28:50;;;;;;;2.90;0.40;;;10.20;99.90;;;;;;4976986;28;20027;-77
2023/10/27 04:31:16;;;;;;;3.33;0.68;;;10.20;99.90;;;;;;4960114;28;20049;-77
2023/10/27 04:33:43;;;;;;;1.05;0.47;;;10.20;99.90;;;;;;4977421;28;20026;-77
2023/10/27 04:36:09;;;;;;;1.15;0.60;;;10.20;99.90;;;;;;4976982;28;20023;-76
2023/10/27 04:38:34;;;;;;;2.75;0.80;;;10.20;99.90;;;;;;4975456;28;20482;-76
2023/10/27 04:41:00;;;;;;;1.08;0.40;;;10.20;99.90;;;;;;4976497;28;20113;-76
2023/10/27 04:43:25;;;;;;;0.90;0.45;;;10.30;99.90;;;;;;4976526;28;20080;-77
2023/10/27 04:45:51;;;;;;;2.10;0.60;;;10.20;99.90;;;;;;4978340;28;20030;-76
2023/10/27 04:48:17;;;;;;;2.83;0.73;;;10.20;99.90;;;;;;4958788;28;20049;-74
2023/10/27 04:50:42;;;;;;;3.38;0.73;;;10.30;99.90;;;;;;4975727;28;20089;-74
2023/10/27 04:53:08;;;;;;;2.47;0.88;;;10.30;99.90;;;;;;4975989;28;20033;-74
2023/10/27 04:55:33;;;;;;;1.85;0.65;;;10.30;99.90;;;;;;4975737;28;20367;-74
2023/10/27 04:57:59;;;;;;;4.57;0.90;;;10.30;99.90;;;;;;4975554;28;20019;-75
2023/10/27 05:00:25;;;;;;;1.85;0.98;;;10.40;99.90;;;;;;4975490;28;20390;-74
2023/10/27 05:02:53;;;;;;;2.05;0.80;;;10.40;99.90;;;;;;4975500;28;20109;-74
2023/10/27 05:05:20;;;;;;;2.78;0.88;;;10.50;99.90;;;;;;4975494;28;20058;-74
2023/10/27 05:07:46;;;;;;;3.10;1.13;;;10.50;99.90;;;;;;4975384;28;20494;-75
2023/10/27 05:10:12;;;;;;;1.85;0.95;;;10.50;99.90;;;;;;4957722;28;20034;-76
2023/10/27 05:12:37;;;;;;;2.33;0.90;;;10.50;99.90;;;;;;4975133;28;20042;-76
2023/10/27 05:15:03;;;;;;;1.30;1.00;;;10.50;99.90;;;;;;4975219;28;20015;-76
2023/10/27 05:17:33;;;;;;;2.40;1.00;;;10.50;99.90;;;;;;4972763;28;20019;-71
2023/10/27 05:19:59;;;;;;;1.80;0.70;;;10.50;99.90;;;;;;4969377;28;20489;-70
2023/10/27 05:22:24;;;;;;;3.28;0.90;;;10.50;99.90;;;;;;4968257;28;20093;-70
2023/10/27 05:24:50;;;;;;;2.60;0.70;;;10.60;99.90;;;;;;4969176;28;20475;-69
2023/10/27 05:27:16;;;;;;;1.33;0.70;;;10.60;99.90;;;;;;4968832;28;20059;-70
2023/10/27 05:29:41;;;;;;;2.03;0.60;;;10.60;99.90;;;;;;4970623;28;20478;-74
2023/10/27 05:32:07;;;;;;;1.92;0.85;;;10.60;99.90;;;;;;4974917;28;20027;-74
2023/10/27 05:34:32;;;;;;;1.30;0.65;;;10.70;99.90;;;;;;4974901;28;20039;-76
2023/10/27 05:36:58;;;;;;;2.95;0.77;;;10.70;99.90;;;;;;4988049;28;20022;-75
2023/10/27 05:39:26;;;;;;;0.77;0.50;;;10.70;99.90;;;;;;4984015;28;20101;-73
2023/10/27 05:41:52;;;;;;;2.75;0.60;;;10.80;99.90;;;;;;4973796;28;20494;-72
2023/10/27 05:44:18;;;;;;;1.15;0.50;;;10.80;99.90;;;;;;4956897;28;20023;-75
2023/10/27 05:46:44;;;;;;;3.45;1.13;;;10.80;99.90;;;;;;4974430;28;20478;-75
2023/10/27 05:49:09;;;;;;;1.33;0.90;;;10.80;99.90;;;;;;4974371;28;20019;-72
2023/10/27 05:51:35;;;;;;;3.13;0.93;;;10.70;99.90;;;;;;4971461;28;20027;-72
2023/10/27 05:54:07;;;;;;;2.45;0.80;;;10.80;99.90;;;;;;4966518;28;20022;-71
2023/10/27 05:56:32;;;;;;;3.25;1.25;;;10.70;99.90;;;;;;4963398;28;20019;-72
2023/10/27 05:58:58;;;;;;;2.92;0.75;;;10.70;99.90;;;;;;4967825;28;20030;-71
2023/10/27 06:01:24;;;;;;;4.00;1.10;;;10.70;99.90;;;;;;4965037;28;20030;-72
2023/10/27 06:03:49;;;;;;;3.22;0.82;;;10.70;99.90;;;;;;4966026;28;20031;-72
2023/10/27 06:06:15;;;;;;;3.22;0.88;;;10.70;99.90;;;;;;4969230;28;20450;-74
2023/10/27 06:08:44;;;;;;;2.47;0.85;;;10.70;99.90;;;;;;4957178;28;20110;-75
2023/10/27 06:11:10;;;;;;;2.60;1.13;;;10.70;99.90;;;;;;4968426;28;20037;-78
2023/10/27 06:13:36;;;;;;;1.60;0.90;;;10.70;99.90;;;;;;4974203;28;20505;-76
2023/10/27 06:16:03;;;;;;;1.95;0.90;;;10.70;99.90;;;;;;4971847;28;20042;-76
2023/10/27 06:18:28;;;;;;;4.05;1.23;;;10.70;99.90;;;;;;4969612;28;27359;-77
2023/10/27 06:20:54;;;;;;;1.65;0.80;;;10.70;99.90;;;;;;4975765;28;20028;-77
2023/10/27 06:23:20;;;;;;;2.88;0.80;;;10.60;99.90;;;;;;4972693;28;20035;-75
2023/10/27 06:25:45;;;;;;;4.93;0.77;;;10.60;99.90;;;;;;4954924;29;20495;-74
2023/10/27 06:28:11;;;;;;;1.00;0.63;;;10.60;99.90;;;;;;4954576;28;20172;-74
2023/10/27 06:30:37;;;;;;;6.47;0.95;;;10.60;99.90;;;;;;4954901;28;20399;-75
2023/10/27 06:33:03;;;;;;;0.80;0.40;;;10.60;99.90;;;;;;4962510;28;20019;-76
2023/10/27 06:35:29;;;;;;;0.57;0.32;;;10.60;99.90;;;;;;4973721;28;20462;-75
2023/10/27 06:37:55;;;;;;;1.85;0.90;;;10.60;99.90;;;;;;4973932;28;20038;-76
2023/10/27 06:40:21;;;;;;;1.25;0.40;;;10.60;99.90;;;;;;4973625;28;20034;-74
2023/10/27 06:42:47;;;;;;;2.63;0.50;;;10.60;99.90;;;;;;4974055;28;20081;-75
2023/10/27 06:45:12;;;;;;;2.88;0.40;;;10.60;99.90;;;;;;4973906;28;20026;-75
2023/10/27 06:47:39;;;;;;;0.47;0.25;;;10.60;99.90;;;;;;4956383;28;20023;-75
2023/10/27 06:50:05;;;;;;;0.77;0.40;;;10.60;99.90;;;;;;4973409;28;20027;-75
2023/10/27 06:52:32;;;;;;;0.47;0.25;;;10.70;99.90;;;;;;4973393;28;20058;-77
2023/10/27 06:54:58;;;;;;;0.30;0.30;;;10.70;99.90;;;;;;4973529;28;20490;-74
2023/10/27 06:57:23;;;;;;;0.30;0.20;;;10.70;99.90;;;;;;4973351;28;20054;-75
2023/10/27 06:59:49;;;;;;;1.23;0.20;;;10.70;99.90;;;;;;4973329;28;20039;-75
2023/10/27 07:02:15;;;;;;;1.13;0.30;;;10.70;99.90;;;;;;4973448;28;20109;-75
2023/10/27 07:04:41;;;;;;;0.40;0.30;;;10.80;99.90;;;;;;4973293;28;20038;-76
2023/10/27 07:07:06;;;;;;;1.15;0.20;;;10.80;99.90;;;;;;4973429;28;20135;-75
2023/10/27 07:09:32;;;;;;;0.68;0.40;;;10.80;99.90;;;;;;4973451;28;20062;-76
2023/10/27 07:12:00;;;;;;;0.82;0.30;;;10.80;99.90;;;;;;4973569;28;20023;-75
2023/10/27 07:14:26;;;;;;;1.52;0.60;;;10.90;99.90;;;;;;4973300;28;20101;-76
2023/10/27 07:16:52;;;;;;;1.27;0.40;;;10.90;99.90;;;;;;4972663;28;20093;-77
2023/10/27 07:19:19;;;;;;;0.80;0.30;;;10.90;99.90;;;;;;4968949;28;20043;-77
2023/10/27 07:21:44;;;;;;;0.88;0.38;;;10.80;99.90;;;;;;4955591;28;20026;-76
2023/10/27 07:24:10;;;;;;;1.35;0.68;;;10.90;99.90;;;;;;4973044;28;20041;-77
2023/10/27 07:26:36;;;;;;;1.00;0.50;;;10.90;99.90;;;;;;4973566;28;20026;-77
2023/10/27 07:29:02;;;;;;;1.13;0.40;;;10.90;99.90;;;;;;4974023;28;20045;-77
2023/10/27 07:31:28;;;;;;;0.95;0.40;;;10.90;99.90;;;;;;4957595;28;20486;-77
2023/10/27 07:33:55;;;;;;;2.03;0.60;;;11.00;99.90;;;;;;4973732;28;20026;-75
2023/10/27 07:36:21;;;;;;;0.50;0.38;;;10.90;99.90;;;;;;4973333;28;20057;-77
2023/10/27 07:38:49;;;;;;;1.23;0.40;;;10.90;99.90;;;;;;4972109;28;20463;-76
2023/10/27 07:41:15;;;;;;;1.52;0.35;;;10.90;99.90;;;;;;4972992;28;20062;-77
2023/10/27 07:43:41;;;;;;;0.82;0.30;;;10.90;99.90;;;;;;4973220;28;20486;-76
2023/10/27 07:46:06;;;;;;;2.85;0.60;;;10.90;99.90;;;;;;4976987;28;20483;-76
2023/10/27 07:48:32;;;;;;;2.80;0.30;;;10.90;99.90;;;;;;4977164;28;20034;-75
2023/10/27 07:50:58;;;;;;;0.80;0.30;;;11.00;99.90;;;;;;4976844;28;20027;-75
2023/10/27 07:53:27;;;;;;;1.13;0.47;;;11.00;99.90;;;;;;4975485;28;20027;-75
2023/10/27 07:55:54;;;;;;;3.95;0.52;;;11.00;99.90;;;;;;4959477;28;20031;-75
2023/10/27 07:58:24;;;;;;;1.08;0.30;;;11.00;99.90;;;;;;4976790;28;20501;-75
2023/10/27 08:00:51;;;;;;;0.90;0.22;;;11.00;99.90;;;;;;4957613;29;20111;-75
2023/10/27 08:03:17;;;;;;;1.50;0.32;;;11.00;99.90;;;;;;4964530;28;20406;-74
2023/10/27 08:05:43;;;;;;;1.35;0.40;;;11.00;99.90;;;;;;4976258;28;20038;-74
2023/10/27 08:08:09;;;;;;;1.05;0.45;;;11.00;99.90;;;;;;4976403;28;20026;-75
2023/10/27 08:10:38;;;;;;;0.95;0.40;;;11.10;99.90;;;;;;4976633;28;20102;-74
2023/10/27 08:13:05;;;;;;;2.80;1.00;;;11.10;99.90;;;;;;4976509;28;20049;-75
2023/10/27 08:15:32;;;;;;;0.95;0.43;;;11.10;99.90;;;;;;4976487;28;20034;-74
2023/10/27 08:17:58;;;;;;;2.33;0.50;;;11.20;99.90;;;;;;4976632;28;20027;-75
2023/10/27 08:20:24;;;;;;;0.95;0.40;;;11.30;99.90;;;;;;4976327;28;20111;-75
2023/10/27 08:22:50;;;;;;;0.98;0.30;;;11.30;99.90;;;;;;4976310;28;20653;-75
2023/10/27 08:25:16;;;;;;;1.08;0.32;;;11.30;99.90;;;;;;4976379;28;20027;-75
2023/10/27 08:27:41;;;;;;;0.70;0.45;;;11.50;99.90;;;;;;4976063;28;20031;-75
2023/10/27 08:30:08;;;;;;;1.10;0.50;;;11.50;99.90;;;;;;4975861;28;20035;-76
2023/10/27 08:32:33;;;;;;;2.47;0.30;;;11.50;99.90;;;;;;4975768;28;20030;-76
2023/10/27 08:34:59;;;;;;;1.90;0.52;;;11.60;99.90;;;;;;4974875;28;20368;-76
2023/10/27 08:37:26;;;;;;;0.50;0.43;;;11.60;99.90;;;;;;4976164;28;20392;-76
2023/10/27 08:39:52;;;;;;;0.50;0.40;;;11.60;99.90;;;;;;4975828;28;20029;-75
2023/10/27 08:42:19;;;;;;;1.23;0.40;;;11.60;99.90;;;;;;4975922;28;20023;-75
2023/10/27 08:44:45;;;;;;;0.98;0.40;;;11.60;99.90;;;;;;4975699;28;20058;-75
2023/10/27 08:47:12;;;;;;;0.40;0.30;;;11.60;99.90;;;;;;4975838;28;20521;-75
2023/10/27 08:49:38;;;;;;;1.33;0.40;;;11.60;99.90;;;;;;4976071;28;20121;-75
2023/10/27 08:52:04;;;;;;;2.13;0.50;;;11.70;99.90;;;;;;4975824;28;20027;-75
2023/10/27 08:54:31;;;;;;;0.65;0.35;;;11.70;99.90;;;;;;4975961;28;20482;-75
2023/10/27 08:56:56;;;;;;;2.08;0.55;;;11.70;99.90;;;;;;4958054;28;20019;-75
2023/10/27 08:59:23;;;;;;;0.63;0.40;;;11.80;99.90;;;;;;4975893;28;20657;-77
2023/10/27 09:01:48;;;;;;;2.47;0.40;;;11.80;99.90;;;;;;4975704;28;20023;-77
2023/10/27 09:04:19;;;;;;;1.33;0.60;;;11.80;99.90;;;;;;4975378;28;20430;-77
2023/10/27 09:06:45;;;;;;;0.93;0.40;;;11.90;99.90;;;;;;4975438;28;20019;-76
2023/10/27 09:09:11;;;;;;;1.00;0.47;;;11.90;99.90;;;;;;4975278;28;20094;-77
2023/10/27 09:11:44;;;;;;;1.00;0.32;;;11.90;99.90;;;;;;4958018;28;20031;-77
2023/10/27 09:14:26;;;;;;;2.30;0.40;;;12.00;99.90;;;;;;4975456;28;20097;-77
2023/10/27 09:17:03;;;;;;;0.77;0.50;;;12.00;99.90;;;;;;4975298;28;20023;-76
2023/10/27 09:19:28;;;;;;;2.47;1.20;;;12.00;99.90;;;;;;4974997;28;20019;-76
2023/10/27 09:21:54;;;;;;;1.98;0.55;;;12.10;99.90;;;;;;4975042;28;20497;-76
2023/10/27 09:24:24;;;;;;;2.67;0.90;;;12.10;99.90;;;;;;4995294;28;20098;-76
2023/10/27 09:26:50;;;;;;;3.33;1.02;;;12.10;99.90;;;;;;4997055;28;20448;-76
2023/10/27 09:29:16;;;;;;;1.13;0.68;;;12.10;99.90;;;;;;4979564;28;20105;-75
2023/10/27 09:31:43;;;;;;;3.75;0.80;;;12.10;99.90;;;;;;4975792;28;20030;-76
2023/10/27 09:34:25;;;;;;;2.33;0.55;;;12.10;99.90;;;;;;4980538;28;20106;-76
2023/10/27 09:36:53;;;;;;;4.72;0.82;;;12.20;99.90;;;;;;4955899;29;20461;-75
2023/10/27 09:39:20;;;;;;;3.78;1.27;;;12.20;99.90;;;;;;4955586;28;20020;-76
2023/10/27 09:42:07;;;;;;;4.30;1.10;;;12.30;99.90;;;;;;4938952;29;20514;-75
2023/10/27 09:44:57;;;;;;;2.60;0.60;;;12.30;99.90;;;;;;4956783;28;20078;-76
2023/10/27 09:47:46;;;;;;;4.00;0.93;;;12.30;99.90;;;;;;4956511;29;20149;-74
2023/10/27 09:50:19;;;;;;;4.82;1.30;;;12.30;99.90;;;;;;4946765;29;20045;-76
2023/10/27 09:52:46;;;;;;;4.38;1.10;;;12.40;99.90;;;;;;4955506;29;20098;-76
2023/10/27 09:55:13;;;;;;;3.15;0.60;;;12.40;99.90;;;;;;4956574;29;20499;-75
2023/10/27 09:57:42;;;;;;;2.58;1.02;;;12.50;99.90;;;;;;4956485;28;20071;-75
2023/10/27 10:00:10;;;;;;;1.88;0.65;;;12.50;99.90;;;;;;4961541;28;20027;-75
2023/10/27 10:02:36;;;;;;;7.50;1.30;;;12.50;99.90;;;;;;4978022;28;20025;-74
2023/10/27 10:05:03;;;;;;;3.47;0.70;;;12.50;99.90;;;;;;4980286;28;20041;-74
2023/10/27 10:07:34;;;;;;;2.22;0.93;;;12.60;99.90;;;;;;4979638;28;20437;-74
2023/10/27 10:10:29;;;;;;;3.22;0.70;;;12.60;99.90;;;;;;4979372;28;20482;-75
2023/10/27 10:13:06;;;;;;;1.60;0.60;;;12.60;99.90;;;;;;4981052;28;20011;-75
2023/10/27 10:15:33;;;;;;;2.28;0.73;;;12.70;99.90;;;;;;4963503;28;20425;-73
2023/10/27 10:18:01;;;;;;;1.63;0.57;;;12.70;99.90;;;;;;4977060;28;20094;-75
2023/10/27 10:20:41;;;;;;;3.05;0.68;;;12.60;99.90;;;;;;4975676;28;20119;-76
2023/10/27 10:23:17;;;;;;;4.45;1.48;;;12.60;99.90;;;;;;4975885;28;20030;-75
2023/10/27 10:25:50;;;;;;;6.93;0.88;;;12.70;99.90;;;;;;4975491;28;20031;-75
2023/10/27 10:28:16;;;;;;;3.22;1.10;;;12.80;99.90;;;;;;4975513;28;20393;-75
2023/10/27 10:31:11;;;;;;;3.35;0.77;;;12.90;99.90;;;;;;4975209;28;20102;-74
2023/10/27 10:33:48;;;;;;;2.08;0.70;;;13.00;99.90;;;;;;4974565;28;20027;-75
2023/10/27 10:36:23;;;;;;;5.53;0.90;;;13.20;99.90;;;;;;4957889;28;20018;-75
2023/10/27 10:38:57;;;;;;;4.47;0.63;;;13.40;99.90;;;;;;4974799;28;20478;-75
2023/10/27 10:41:41;;;;;;;3.00;0.60;;;13.50;99.90;;;;;;4975591;28;20031;-75
2023/10/27 10:44:14;;;;;;;3.17;0.57;;;13.50;99.90;;;;;;4974609;28;20082;-74
2023/10/27 10:46:44;;;;;;;4.30;1.00;;;13.60;99.90;;;;;;4974626;28;20022;-75
2023/10/27 10:49:21;;;;;;;3.00;0.60;;;13.70;99.90;;;;;;4957042;28;20031;-75
2023/10/27 10:51:54;;;;;;;4.55;0.55;;;13.70;99.90;;;;;;4958544;28;20164;-74
2023/10/27 10:54:25;;;;;;;2.03;0.77;;;13.90;99.90;;;;;;4975212;28;20125;-76
2023/10/27 10:57:02;;;;;;;2.35;0.88;;;14.00;99.90;;;;;;4975272;28;20026;-75
2023/10/27 10:59:28;;;;;;;2.28;0.43;;;14.10;99.90;;;;;;4974459;28;20031;-75
2023/10/27 11:01:57;;;;;;;3.05;0.50;;;14.10;99.90;;;;;;4957327;28;20023;-75
2023/10/27 11:04:30;;;;;;;2.50;0.85;;;14.20;99.90;;;;;;4974836;28;20084;-75
2023/10/27 11:07:04;;;;;;;3.92;0.70;;;14.20;99.90;;;;;;4974796;28;20019;-75
2023/10/27 11:09:33;;;;;;;5.13;0.88;;;14.20;99.90;;;;;;4978970;28;20027;-74
2023/10/27 11:12:00;;;;;;;1.63;0.60;;;14.30;99.90;;;;;;4977616;28;20030;-75
2023/10/27 11:14:26;;;;;;;2.15;0.50;;;14.30;99.90;;;;;;4979168;28;20019;-76
2023/10/27 11:16:59;;;;;;;4.03;0.60;;;14.30;99.90;;;;;;4960144;28;20023;-74
2023/10/27 11:19:25;;;;;;;2.17;0.50;;;14.40;99.90;;;;;;4974539;28;20027;-76
2023/10/27 11:21:53;;;;;;;4.22;0.60;;;14.40;99.90;;;;;;4974292;28;20449;-75
2023/10/27 11:24:19;;;;;;;2.05;0.60;;;14.40;99.90;;;;;;4973116;28;20023;-75
2023/10/27 11:26:45;;;;;;;2.30;0.52;;;14.50;99.90;;;;;;4973795;28;20025;-74
2023/10/27 11:29:11;;;;;;;3.72;0.63;;;14.40;99.90;;;;;;4963656;28;20046;-75
2023/10/27 11:31:39;;;;;;;4.20;0.60;;;14.40;99.90;;;;;;4956368;28;20093;-75
2023/10/27 11:34:11;;;;;;;1.58;0.50;;;14.40;99.90;;;;;;4969397;28;20045;-75
2023/10/27 11:36:47;;;;;;;2.42;0.60;;;14.30;99.90;;;;;;4980691;28;20022;-74
2023/10/27 11:39:13;;;;;;;2.22;0.60;;;14.30;99.90;;;;;;4973625;28;20169;-75
2023/10/27 11:41:43;;;;;;;5.32;0.60;;;14.30;99.90;;;;;;4950368;28;20449;-76
2023/10/27 11:44:09;;;;;;;2.60;0.65;;;14.40;99.90;;;;;;4973156;28;20019;-76
2023/10/27 11:46:35;;;;;;;0.68;0.40;;;14.40;99.90;;;;;;4973435;28;20026;-75
2023/10/27 11:49:01;;;;;;;5.50;0.70;;;14.50;99.90;;;;;;4973384;28;20126;-75
2023/10/27 11:51:29;;;;;;;0.80;0.40;;;14.40;99.90;;;;;;4973595;28;20110;-76
2023/10/27 11:53:55;;;;;;;1.45;0.40;;;14.50;99.90;;;;;;4973360;28;20058;-76
2023/10/27 11:56:21;;;;;;;3.28;0.60;;;14.50;99.90;;;;;;4973484;28;20407;-74
2023/10/27 11:58:46;;;;;;;5.20;0.70;;;14.60;99.90;;;;;;4973671;28;20051;-76
2023/10/27 12:01:12;;;;;;;2.58;1.02;;;14.60;99.90;;;;;;4973582;28;20023;-75
2023/10/27 12:03:38;;;;;;;2.83;0.32;;;14.70;99.90;;;;;;4973844;28;20050;-76
2023/10/27 12:06:04;;;;;;;2.30;0.52;;;14.70;99.90;;;;;;4973365;28;20393;-75
2023/10/27 12:08:30;;;;;;;1.42;0.50;;;14.60;99.90;;;;;;4973243;28;20026;-75
2023/10/27 12:10:56;;;;;;;1.67;0.40;;;14.60;99.90;;;;;;4973144;28;20030;-75
2023/10/27 12:13:23;;;;;;;1.75;0.68;;;14.60;99.90;;;;;;4973382;28;20022;-75
2023/10/27 12:15:49;;;;;;;2.17;0.35;;;14.60;99.90;;;;;;4973028;28;20043;-76
2023/10/27 12:18:19;;;;;;;0.80;0.50;;;14.50;99.90;;;;;;4974501;28;20493;-75
2023/10/27 12:20:45;;;;;;;2.28;0.93;;;14.50;99.90;;;;;;4973139;28;20073;-75
2023/10/27 12:23:11;;;;;;;1.88;0.40;;;14.50;99.90;;;;;;4973174;28;20117;-75
2023/10/27 12:25:37;;;;;;;1.20;0.30;;;14.50;99.90;;;;;;4973190;28;20517;-75
2023/10/27 12:28:03;;;;;;;3.58;0.45;;;14.50;99.90;;;;;;4972882;28;20399;-75
2023/10/27 12:30:30;;;;;;;2.85;0.40;;;14.50;99.90;;;;;;4973722;28;20034;-76
2023/10/27 12:32:56;;;;;;;1.65;0.50;;;14.50;99.90;;;;;;4976405;28;20601;-75
2023/10/27 12:35:25;;;;;;;1.35;0.45;;;14.50;99.90;;;;;;4976371;28;20097;-74
2023/10/27 12:37:50;;;;;;;2.70;0.65;;;14.50;99.90;;;;;;4976736;28;20041;-74
2023/10/27 12:40:16;;;;;;;1.63;0.52;;;14.50;99.90;;;;;;4958515;28;20027;-75
2023/10/27 12:42:42;;;;;;;1.85;0.50;;;14.60;99.90;;;;;;4976268;28;20026;-75
2023/10/27 12:45:08;;;;;;;1.58;0.40;;;14.50;99.90;;;;;;4959134;28;20033;-75
2023/10/27 12:47:34;;;;;;;1.98;0.47;;;14.50;99.90;;;;;;4976690;28;20392;-75